עמוד ראשי
METAR-TAF:

METAR-TAF

שדות תעופה :

Balmaceda, צ'ילה

קו רוחב: 45-55S, קו אורך: 071-41W, גובה: 520מטר

תצפית מזג אוויר נוכחית

הדו"ח נערך לפני 3 שעות ו 24דקות, בשעה 07:00 UTC
רוח רגועה
טמפרטורת -19 צלסיוס
לחות 84%
לחץ 1026 hPa
ראות: 2300מטר
אד,

METAR: SCBA 240700Z AUTO 00000KT 2300 BR OVC001/// M19/M21 Q1026

זמן: 06:24 (10:24 UTC)

תחזית

הדו"ח נערך לפני 3 שעות ו 24דקות, בשעה 07:00 UTC
תחזית בתוקף מ 24 ב 07 UTC עד 25 ב 06 UTC
רוח 2קשר עם כיוונים משתנים
ראות 10 קילומטר או יותר
מעונן בגובה 200רגל
זמנית מ -
24 ב 09 UTC עד 24 ב 14 UTC
ראות: 0800מטר
ערפל קפוא
יעשה מ
24 ב 16 UTC עד 24 ב 18 UTC
רוח 6קשר מכיוון מערב/צפון-מערב
מעט עננים בגובה 5000רגל

TAF: SCBA 240700Z 2407/2506 VRB02KT 9999 OVC002 TNM20/2407Z TXM05/2419Z TEMPO 2409/2414 0800 FZFG BECMG 2416/2418 30006KT FEW050

תצפיות ותחזיות מזג אוויר לגבי יותר מ- 4,000 שדות תעופה ברחבי העולם. דוחות METAR ו- TAF.

התחנות הזמינות מסומנות בנקודות צהובות ואדומות על גבי המפה.

העבר את העכבר לנקודה הצבעונית על מנת לראות את שם התחנה.

לאחר מכן, לחץ כדי לראות את תוכן ואת תחזיות מזג האוויר.

כדי לשנות את המפה: לחץ על הכפתורים הירוקים עם הפלוס השחור כדי להתקרב; על הכפתור הירוק עם המקף כדי להתרחק; או בחיצים הירוקים למפות סמוכות.


METAR-TAF: